sensor_id;sensor_type;location;lat;lon;timestamp;P1;durP1;ratioP1;P2;durP2;ratioP2
52306;SDS011;38249;48.920;12.882;2022-07-22T00:01:26;12.32;;;11.02;;
52306;SDS011;38249;48.920;12.882;2022-07-22T00:03:52;15.30;;;11.52;;
52306;SDS011;38249;48.920;12.882;2022-07-22T00:06:19;14.00;;;12.35;;
52306;SDS011;38249;48.920;12.882;2022-07-22T00:08:45;13.95;;;12.55;;
52306;SDS011;38249;48.920;12.882;2022-07-22T00:11:12;12.63;;;11.32;;
52306;SDS011;38249;48.920;12.882;2022-07-22T00:13:38;12.82;;;11.02;;
52306;SDS011;38249;48.920;12.882;2022-07-22T00:16:07;13.10;;;11.30;;
52306;SDS011;38249;48.920;12.882;2022-07-22T00:18:33;13.98;;;12.52;;
52306;SDS011;38249;48.920;12.882;2022-07-22T00:21:00;13.77;;;11.50;;
52306;SDS011;38249;48.920;12.882;2022-07-22T00:23:26;13.77;;;12.32;;
52306;SDS011;38249;48.920;12.882;2022-07-22T00:25:53;16.52;;;11.93;;
52306;SDS011;38249;48.920;12.882;2022-07-22T00:28:20;16.25;;;12.40;;
52306;SDS011;38249;48.920;12.882;2022-07-22T00:30:46;13.68;;;12.15;;
52306;SDS011;38249;48.920;12.882;2022-07-22T00:33:14;12.43;;;11.13;;
52306;SDS011;38249;48.920;12.882;2022-07-22T00:35:41;15.50;;;11.82;;
52306;SDS011;38249;48.920;12.882;2022-07-22T00:38:07;15.50;;;13.25;;
52306;SDS011;38249;48.920;12.882;2022-07-22T00:40:34;15.98;;;13.50;;
52306;SDS011;38249;48.920;12.882;2022-07-22T00:43:00;17.88;;;13.77;;
52306;SDS011;38249;48.920;12.882;2022-07-22T00:45:27;17.08;;;13.75;;
52306;SDS011;38249;48.920;12.882;2022-07-22T00:47:53;13.38;;;12.05;;
52306;SDS011;38249;48.920;12.882;2022-07-22T00:50:21;15.10;;;12.18;;
52306;SDS011;38249;48.920;12.882;2022-07-22T00:52:49;14.80;;;11.65;;
52306;SDS011;38249;48.920;12.882;2022-07-22T00:55:16;15.38;;;12.00;;
52306;SDS011;38249;48.920;12.882;2022-07-22T00:57:42;12.80;;;11.40;;
52306;SDS011;38249;48.920;12.882;2022-07-22T01:00:10;14.90;;;11.05;;
52306;SDS011;38249;48.920;12.882;2022-07-22T01:02:40;12.63;;;11.32;;
52306;SDS011;38249;48.920;12.882;2022-07-22T01:05:07;12.77;;;11.45;;
52306;SDS011;38249;48.920;12.882;2022-07-22T01:07:35;12.90;;;11.60;;
52306;SDS011;38249;48.920;12.882;2022-07-22T01:10:03;12.07;;;10.48;;
52306;SDS011;38249;48.920;12.882;2022-07-22T01:12:30;13.77;;;11.35;;
52306;SDS011;38249;48.920;12.882;2022-07-22T01:14:57;15.48;;;12.20;;
52306;SDS011;38249;48.920;12.882;2022-07-22T01:17:24;16.50;;;11.85;;
52306;SDS011;38249;48.920;12.882;2022-07-22T01:19:50;13.00;;;11.73;;
52306;SDS011;38249;48.920;12.882;2022-07-22T01:22:19;14.23;;;11.77;;
52306;SDS011;38249;48.920;12.882;2022-07-22T01:24:46;13.55;;;11.68;;
52306;SDS011;38249;48.920;12.882;2022-07-22T01:27:12;16.13;;;12.80;;
52306;SDS011;38249;48.920;12.882;2022-07-22T01:29:39;13.27;;;11.25;;
52306;SDS011;38249;48.920;12.882;2022-07-22T01:32:05;13.13;;;11.05;;
52306;SDS011;38249;48.920;12.882;2022-07-22T01:34:32;13.82;;;11.38;;
52306;SDS011;38249;48.920;12.882;2022-07-22T01:36:58;14.85;;;11.50;;
52306;SDS011;38249;48.920;12.882;2022-07-22T01:39:26;14.00;;;11.82;;
52306;SDS011;38249;48.920;12.882;2022-07-22T01:41:53;13.55;;;11.98;;
52306;SDS011;38249;48.920;12.882;2022-07-22T01:44:19;14.95;;;12.13;;
52306;SDS011;38249;48.920;12.882;2022-07-22T01:46:46;14.45;;;12.80;;
52306;SDS011;38249;48.920;12.882;2022-07-22T01:49:12;13.70;;;12.35;;
52306;SDS011;38249;48.920;12.882;2022-07-22T01:51:40;14.05;;;12.35;;
52306;SDS011;38249;48.920;12.882;2022-07-22T01:54:06;13.82;;;12.45;;
52306;SDS011;38249;48.920;12.882;2022-07-22T01:56:34;13.90;;;11.68;;
52306;SDS011;38249;48.920;12.882;2022-07-22T01:59:01;13.15;;;11.85;;
52306;SDS011;38249;48.920;12.882;2022-07-22T02:01:27;12.88;;;11.57;;
52306;SDS011;38249;48.920;12.882;2022-07-22T02:03:54;16.65;;;12.50;;
52306;SDS011;38249;48.920;12.882;2022-07-22T02:06:20;13.35;;;11.98;;
52306;SDS011;38249;48.920;12.882;2022-07-22T02:08:47;15.75;;;11.98;;
52306;SDS011;38249;48.920;12.882;2022-07-22T02:11:13;14.63;;;12.35;;
52306;SDS011;38249;48.920;12.882;2022-07-22T02:13:41;14.23;;;11.77;;
52306;SDS011;38249;48.920;12.882;2022-07-22T02:16:07;13.20;;;11.85;;
52306;SDS011;38249;48.920;12.882;2022-07-22T02:18:34;15.10;;;12.52;;
52306;SDS011;38249;48.920;12.882;2022-07-22T02:21:01;13.05;;;11.68;;
52306;SDS011;38249;48.920;12.882;2022-07-22T02:23:27;13.40;;;11.70;;
52306;SDS011;38249;48.920;12.882;2022-07-22T02:25:54;14.60;;;11.48;;
52306;SDS011;38249;48.920;12.882;2022-07-22T02:28:20;15.18;;;12.65;;
52306;SDS011;38249;48.920;12.882;2022-07-22T02:30:48;13.48;;;12.02;;
52306;SDS011;38249;48.920;12.882;2022-07-22T02:33:15;14.55;;;11.70;;
52306;SDS011;38249;48.920;12.882;2022-07-22T02:35:41;13.43;;;11.40;;
52306;SDS011;38249;48.920;12.882;2022-07-22T02:38:08;14.25;;;12.40;;
52306;SDS011;38249;48.920;12.882;2022-07-22T02:40:34;13.52;;;12.13;;
52306;SDS011;38249;48.920;12.882;2022-07-22T02:43:01;16.20;;;12.30;;
52306;SDS011;38249;48.920;12.882;2022-07-22T02:45:31;12.95;;;11.60;;
52306;SDS011;38249;48.920;12.882;2022-07-22T02:47:59;16.27;;;12.65;;
52306;SDS011;38249;48.920;12.882;2022-07-22T02:50:25;13.90;;;11.75;;
52306;SDS011;38249;48.920;12.882;2022-07-22T02:52:52;15.13;;;11.65;;
52306;SDS011;38249;48.920;12.882;2022-07-22T02:55:19;12.70;;;11.25;;
52306;SDS011;38249;48.920;12.882;2022-07-22T02:57:45;14.45;;;11.23;;
52306;SDS011;38249;48.920;12.882;2022-07-22T03:00:12;14.15;;;12.35;;
52306;SDS011;38249;48.920;12.882;2022-07-22T03:02:40;14.27;;;12.35;;
52306;SDS011;38249;48.920;12.882;2022-07-22T03:05:08;15.10;;;12.25;;
52306;SDS011;38249;48.920;12.882;2022-07-22T03:07:34;14.88;;;12.27;;
52306;SDS011;38249;48.920;12.882;2022-07-22T03:10:01;14.90;;;13.35;;
52306;SDS011;38249;48.920;12.882;2022-07-22T03:12:29;14.10;;;11.75;;
52306;SDS011;38249;48.920;12.882;2022-07-22T03:14:55;15.82;;;13.38;;
52306;SDS011;38249;48.920;12.882;2022-07-22T03:17:22;13.43;;;12.05;;
52306;SDS011;38249;48.920;12.882;2022-07-22T03:19:48;12.82;;;11.32;;
52306;SDS011;38249;48.920;12.882;2022-07-22T03:22:17;14.30;;;11.13;;
52306;SDS011;38249;48.920;12.882;2022-07-22T03:24:44;16.98;;;12.07;;
52306;SDS011;38249;48.920;12.882;2022-07-22T03:27:10;15.88;;;12.32;;
52306;SDS011;38249;48.920;12.882;2022-07-22T03:29:37;20.05;;;16.10;;
52306;SDS011;38249;48.920;12.882;2022-07-22T03:32:03;20.83;;;16.08;;
52306;SDS011;38249;48.920;12.882;2022-07-22T03:34:30;33.95;;;24.30;;
52306;SDS011;38249;48.920;12.882;2022-07-22T03:36:56;18.90;;;15.77;;
52306;SDS011;38249;48.920;12.882;2022-07-22T03:39:24;16.98;;;14.15;;
52306;SDS011;38249;48.920;12.882;2022-07-22T03:41:51;14.80;;;12.98;;
52306;SDS011;38249;48.920;12.882;2022-07-22T03:44:17;17.83;;;14.90;;
52306;SDS011;38249;48.920;12.882;2022-07-22T03:46:44;20.05;;;16.33;;
52306;SDS011;38249;48.920;12.882;2022-07-22T03:49:10;16.67;;;13.70;;
52306;SDS011;38249;48.920;12.882;2022-07-22T03:51:37;15.32;;;12.60;;
52306;SDS011;38249;48.920;12.882;2022-07-22T03:54:03;23.35;;;16.73;;
52306;SDS011;38249;48.920;12.882;2022-07-22T03:56:32;20.23;;;13.20;;
52306;SDS011;38249;48.920;12.882;2022-07-22T03:58:59;17.92;;;13.52;;
52306;SDS011;38249;48.920;12.882;2022-07-22T04:01:25;20.58;;;16.52;;
52306;SDS011;38249;48.920;12.882;2022-07-22T04:03:52;18.92;;;13.82;;
52306;SDS011;38249;48.920;12.882;2022-07-22T04:06:18;15.98;;;12.77;;
52306;SDS011;38249;48.920;12.882;2022-07-22T04:08:45;16.33;;;14.60;;
52306;SDS011;38249;48.920;12.882;2022-07-22T04:11:11;17.10;;;13.93;;
52306;SDS011;38249;48.920;12.882;2022-07-22T04:13:40;16.88;;;13.15;;
52306;SDS011;38249;48.920;12.882;2022-07-22T04:16:06;16.48;;;13.40;;
52306;SDS011;38249;48.920;12.882;2022-07-22T04:18:33;15.55;;;13.73;;
52306;SDS011;38249;48.920;12.882;2022-07-22T04:20:59;17.92;;;13.55;;
52306;SDS011;38249;48.920;12.882;2022-07-22T04:23:26;20.52;;;17.02;;
52306;SDS011;38249;48.920;12.882;2022-07-22T04:25:52;32.78;;;26.25;;
52306;SDS011;38249;48.920;12.882;2022-07-22T04:28:19;14.95;;;13.20;;
52306;SDS011;38249;48.920;12.882;2022-07-22T04:30:47;16.13;;;13.00;;
52306;SDS011;38249;48.920;12.882;2022-07-22T04:33:13;13.88;;;12.23;;
52306;SDS011;38249;48.920;12.882;2022-07-22T04:35:40;14.27;;;12.77;;
52306;SDS011;38249;48.920;12.882;2022-07-22T04:38:06;16.70;;;13.55;;
52306;SDS011;38249;48.920;12.882;2022-07-22T04:40:33;18.13;;;14.57;;
52306;SDS011;38249;48.920;12.882;2022-07-22T04:43:00;16.75;;;13.23;;
52306;SDS011;38249;48.920;12.882;2022-07-22T04:45:26;15.05;;;12.82;;
52306;SDS011;38249;48.920;12.882;2022-07-22T04:47:54;14.15;;;12.57;;
52306;SDS011;38249;48.920;12.882;2022-07-22T04:50:21;17.27;;;13.93;;
52306;SDS011;38249;48.920;12.882;2022-07-22T04:52:47;16.23;;;13.88;;
52306;SDS011;38249;48.920;12.882;2022-07-22T04:55:14;15.25;;;13.57;;
52306;SDS011;38249;48.920;12.882;2022-07-22T04:57:40;13.55;;;11.80;;
52306;SDS011;38249;48.920;12.882;2022-07-22T05:00:07;14.45;;;12.90;;
52306;SDS011;38249;48.920;12.882;2022-07-22T05:02:34;15.85;;;14.25;;
52306;SDS011;38249;48.920;12.882;2022-07-22T05:05:03;15.52;;;13.88;;
52306;SDS011;38249;48.920;12.882;2022-07-22T05:07:30;24.05;;;15.57;;
52306;SDS011;38249;48.920;12.882;2022-07-22T05:09:57;15.85;;;13.95;;
52306;SDS011;38249;48.920;12.882;2022-07-22T05:12:24;17.63;;;14.15;;
52306;SDS011;38249;48.920;12.882;2022-07-22T05:14:51;22.80;;;16.08;;
52306;SDS011;38249;48.920;12.882;2022-07-22T05:17:19;17.88;;;15.98;;
52306;SDS011;38249;48.920;12.882;2022-07-22T05:19:46;28.85;;;25.17;;
52306;SDS011;38249;48.920;12.882;2022-07-22T05:22:15;21.25;;;18.48;;
52306;SDS011;38249;48.920;12.882;2022-07-22T05:24:41;15.55;;;13.50;;
52306;SDS011;38249;48.920;12.882;2022-07-22T05:27:08;16.50;;;14.75;;
52306;SDS011;38249;48.920;12.882;2022-07-22T05:29:34;14.93;;;13.43;;
52306;SDS011;38249;48.920;12.882;2022-07-22T05:32:01;19.90;;;17.80;;
52306;SDS011;38249;48.920;12.882;2022-07-22T05:34:27;15.55;;;13.95;;
52306;SDS011;38249;48.920;12.882;2022-07-22T05:36:54;15.82;;;14.23;;
52306;SDS011;38249;48.920;12.882;2022-07-22T05:39:22;17.98;;;14.23;;
52306;SDS011;38249;48.920;12.882;2022-07-22T05:41:48;15.45;;;13.93;;
52306;SDS011;38249;48.920;12.882;2022-07-22T05:44:15;17.65;;;15.65;;
52306;SDS011;38249;48.920;12.882;2022-07-22T05:46:42;18.95;;;14.82;;
52306;SDS011;38249;48.920;12.882;2022-07-22T05:49:08;16.98;;;14.70;;
52306;SDS011;38249;48.920;12.882;2022-07-22T05:51:35;22.60;;;17.83;;
52306;SDS011;38249;48.920;12.882;2022-07-22T05:54:01;17.35;;;15.15;;
52306;SDS011;38249;48.920;12.882;2022-07-22T05:56:30;16.70;;;14.90;;
52306;SDS011;38249;48.920;12.882;2022-07-22T05:58:57;20.83;;;16.83;;
52306;SDS011;38249;48.920;12.882;2022-07-22T06:01:23;23.23;;;19.10;;
52306;SDS011;38249;48.920;12.882;2022-07-22T06:03:50;23.67;;;19.80;;
52306;SDS011;38249;48.920;12.882;2022-07-22T06:06:17;34.65;;;29.08;;
52306;SDS011;38249;48.920;12.882;2022-07-22T06:08:43;22.08;;;19.45;;
52306;SDS011;38249;48.920;12.882;2022-07-22T06:11:10;19.88;;;17.65;;
52306;SDS011;38249;48.920;12.882;2022-07-22T06:13:38;18.65;;;16.67;;
52306;SDS011;38249;48.920;12.882;2022-07-22T06:16:04;19.27;;;16.52;;
52306;SDS011;38249;48.920;12.882;2022-07-22T06:18:32;19.30;;;16.77;;
52306;SDS011;38249;48.920;12.882;2022-07-22T06:20:58;19.98;;;17.33;;
52306;SDS011;38249;48.920;12.882;2022-07-22T06:23:25;18.90;;;16.90;;
52306;SDS011;38249;48.920;12.882;2022-07-22T06:25:51;20.10;;;16.83;;
52306;SDS011;38249;48.920;12.882;2022-07-22T06:28:18;20.13;;;17.55;;
52306;SDS011;38249;48.920;12.882;2022-07-22T06:30:45;27.00;;;21.25;;
52306;SDS011;38249;48.920;12.882;2022-07-22T06:33:12;19.45;;;16.58;;
52306;SDS011;38249;48.920;12.882;2022-07-22T06:35:39;20.20;;;15.70;;
52306;SDS011;38249;48.920;12.882;2022-07-22T06:38:06;18.98;;;16.27;;
52306;SDS011;38249;48.920;12.882;2022-07-22T06:40:33;21.60;;;15.48;;
52306;SDS011;38249;48.920;12.882;2022-07-22T06:43:00;21.40;;;16.50;;
52306;SDS011;38249;48.920;12.882;2022-07-22T06:45:27;18.67;;;16.05;;
52306;SDS011;38249;48.920;12.882;2022-07-22T06:47:55;21.65;;;17.33;;
52306;SDS011;38249;48.920;12.882;2022-07-22T06:50:22;19.38;;;16.90;;
52306;SDS011;38249;48.920;12.882;2022-07-22T06:52:49;16.95;;;15.23;;
52306;SDS011;38249;48.920;12.882;2022-07-22T06:55:16;16.63;;;14.82;;
52306;SDS011;38249;48.920;12.882;2022-07-22T06:57:42;18.88;;;16.45;;
52306;SDS011;38249;48.920;12.882;2022-07-22T07:00:09;17.20;;;15.43;;
52306;SDS011;38249;48.920;12.882;2022-07-22T07:02:36;16.92;;;15.05;;
52306;SDS011;38249;48.920;12.882;2022-07-22T07:05:05;17.13;;;15.32;;
52306;SDS011;38249;48.920;12.882;2022-07-22T07:07:32;18.42;;;15.95;;
52306;SDS011;38249;48.920;12.882;2022-07-22T07:09:58;17.25;;;15.45;;
52306;SDS011;38249;48.920;12.882;2022-07-22T07:12:25;16.00;;;14.30;;
52306;SDS011;38249;48.920;12.882;2022-07-22T07:14:52;16.52;;;14.85;;
52306;SDS011;38249;48.920;12.882;2022-07-22T07:17:18;19.77;;;14.48;;
52306;SDS011;38249;48.920;12.882;2022-07-22T07:19:45;18.75;;;16.35;;
52306;SDS011;38249;48.920;12.882;2022-07-22T07:22:12;19.65;;;15.05;;
52306;SDS011;38249;48.920;12.882;2022-07-22T07:24:39;16.80;;;14.95;;
52306;SDS011;38249;48.920;12.882;2022-07-22T07:27:05;18.13;;;15.50;;
52306;SDS011;38249;48.920;12.882;2022-07-22T07:29:32;17.92;;;15.45;;
52306;SDS011;38249;48.920;12.882;2022-07-22T07:31:58;16.50;;;14.80;;
52306;SDS011;38249;48.920;12.882;2022-07-22T07:34:25;18.42;;;14.98;;
52306;SDS011;38249;48.920;12.882;2022-07-22T07:36:51;17.67;;;15.77;;
52306;SDS011;38249;48.920;12.882;2022-07-22T07:39:19;16.83;;;15.10;;
52306;SDS011;38249;48.920;12.882;2022-07-22T07:41:46;20.92;;;16.08;;
52306;SDS011;38249;48.920;12.882;2022-07-22T07:44:12;18.13;;;16.23;;
52306;SDS011;38249;48.920;12.882;2022-07-22T07:46:39;17.80;;;14.48;;
52306;SDS011;38249;48.920;12.882;2022-07-22T07:49:05;16.98;;;14.95;;
52306;SDS011;38249;48.920;12.882;2022-07-22T07:51:32;19.58;;;14.77;;
52306;SDS011;38249;48.920;12.882;2022-07-22T07:53:58;14.48;;;13.00;;
52306;SDS011;38249;48.920;12.882;2022-07-22T07:56:26;14.68;;;13.18;;
52306;SDS011;38249;48.920;12.882;2022-07-22T07:58:53;15.15;;;13.63;;
52306;SDS011;38249;48.920;12.882;2022-07-22T08:01:19;13.50;;;12.07;;
52306;SDS011;38249;48.920;12.882;2022-07-22T08:03:46;15.90;;;13.88;;
52306;SDS011;38249;48.920;12.882;2022-07-22T08:06:12;14.02;;;12.65;;
52306;SDS011;38249;48.920;12.882;2022-07-22T08:08:38;15.40;;;13.80;;
52306;SDS011;38249;48.920;12.882;2022-07-22T08:11:05;16.75;;;13.30;;
52306;SDS011;38249;48.920;12.882;2022-07-22T08:13:33;15.27;;;13.52;;
52306;SDS011;38249;48.920;12.882;2022-07-22T08:15:59;15.63;;;13.25;;
52306;SDS011;38249;48.920;12.882;2022-07-22T08:18:26;14.73;;;13.23;;
52306;SDS011;38249;48.920;12.882;2022-07-22T08:20:53;13.88;;;12.48;;
52306;SDS011;38249;48.920;12.882;2022-07-22T08:23:19;15.93;;;13.40;;
52306;SDS011;38249;48.920;12.882;2022-07-22T08:25:46;14.30;;;12.50;;
52306;SDS011;38249;48.920;12.882;2022-07-22T08:28:13;13.52;;;12.18;;
52306;SDS011;38249;48.920;12.882;2022-07-22T08:30:41;14.75;;;11.73;;
52306;SDS011;38249;48.920;12.882;2022-07-22T08:33:07;13.13;;;11.52;;
52306;SDS011;38249;48.920;12.882;2022-07-22T08:35:34;12.68;;;11.15;;
52306;SDS011;38249;48.920;12.882;2022-07-22T08:38:01;13.18;;;11.23;;
52306;SDS011;38249;48.920;12.882;2022-07-22T08:40:28;13.73;;;12.38;;
52306;SDS011;38249;48.920;12.882;2022-07-22T08:42:54;12.73;;;11.18;;
52306;SDS011;38249;48.920;12.882;2022-07-22T08:45:21;13.55;;;12.05;;
52306;SDS011;38249;48.920;12.882;2022-07-22T08:47:50;11.98;;;10.75;;
52306;SDS011;38249;48.920;12.882;2022-07-22T08:50:17;11.30;;;10.30;;
52306;SDS011;38249;48.920;12.882;2022-07-22T08:52:44;10.98;;;9.77;;
52306;SDS011;38249;48.920;12.882;2022-07-22T08:55:11;11.32;;;10.23;;
52306;SDS011;38249;48.920;12.882;2022-07-22T08:57:37;11.77;;;10.15;;
52306;SDS011;38249;48.920;12.882;2022-07-22T09:00:10;12.07;;;10.88;;
52306;SDS011;38249;48.920;12.882;2022-07-22T09:02:39;12.88;;;11.68;;
52306;SDS011;38249;48.920;12.882;2022-07-22T09:05:08;15.60;;;14.00;;
52306;SDS011;38249;48.920;12.882;2022-07-22T09:07:37;12.98;;;10.52;;
52306;SDS011;38249;48.920;12.882;2022-07-22T09:10:06;16.52;;;14.48;;
52306;SDS011;38249;48.920;12.882;2022-07-22T09:12:34;15.45;;;13.95;;
52306;SDS011;38249;48.920;12.882;2022-07-22T09:15:16;12.75;;;10.50;;
52306;SDS011;38249;48.920;12.882;2022-07-22T09:17:52;10.73;;;9.68;;
52306;SDS011;38249;48.920;12.882;2022-07-22T09:20:20;12.25;;;11.05;;
52306;SDS011;38249;48.920;12.882;2022-07-22T09:22:47;12.52;;;10.55;;
52306;SDS011;38249;48.920;12.882;2022-07-22T09:25:19;10.70;;;9.70;;
52306;SDS011;38249;48.920;12.882;2022-07-22T09:27:48;10.60;;;9.50;;
52306;SDS011;38249;48.920;12.882;2022-07-22T09:30:16;10.20;;;9.20;;
52306;SDS011;38249;48.920;12.882;2022-07-22T09:32:44;10.77;;;9.73;;
52306;SDS011;38249;48.920;12.882;2022-07-22T09:35:12;9.82;;;8.88;;
52306;SDS011;38249;48.920;12.882;2022-07-22T09:37:47;10.38;;;8.85;;
52306;SDS011;38249;48.920;12.882;2022-07-22T09:40:15;10.23;;;9.23;;
52306;SDS011;38249;48.920;12.882;2022-07-22T09:42:43;9.30;;;8.40;;
52306;SDS011;38249;48.920;12.882;2022-07-22T09:45:11;9.32;;;8.43;;
52306;SDS011;38249;48.920;12.882;2022-07-22T09:47:40;9.95;;;8.98;;
52306;SDS011;38249;48.920;12.882;2022-07-22T09:50:13;9.95;;;9.00;;
52306;SDS011;38249;48.920;12.882;2022-07-22T09:52:41;9.55;;;8.57;;
52306;SDS011;38249;48.920;12.882;2022-07-22T09:55:09;9.30;;;8.43;;
52306;SDS011;38249;48.920;12.882;2022-07-22T09:57:36;8.68;;;7.88;;
52306;SDS011;38249;48.920;12.882;2022-07-22T10:00:03;9.18;;;8.20;;
52306;SDS011;38249;48.920;12.882;2022-07-22T10:02:33;8.45;;;7.65;;
52306;SDS011;38249;48.920;12.882;2022-07-22T10:05:05;7.63;;;6.90;;
52306;SDS011;38249;48.920;12.882;2022-07-22T10:07:34;7.70;;;7.03;;
52306;SDS011;38249;48.920;12.882;2022-07-22T10:10:02;8.93;;;8.15;;
52306;SDS011;38249;48.920;12.882;2022-07-22T10:12:31;7.15;;;6.45;;
52306;SDS011;38249;48.920;12.882;2022-07-22T10:14:58;7.10;;;6.45;;
52306;SDS011;38249;48.920;12.882;2022-07-22T10:17:24;6.65;;;6.05;;
52306;SDS011;38249;48.920;12.882;2022-07-22T10:19:51;6.65;;;6.15;;
52306;SDS011;38249;48.920;12.882;2022-07-22T10:25:17;6.18;;;5.68;;
52306;SDS011;38249;48.920;12.882;2022-07-22T10:27:47;6.32;;;5.15;;
52306;SDS011;38249;48.920;12.882;2022-07-22T10:30:15;5.47;;;5.07;;
52306;SDS011;38249;48.920;12.882;2022-07-22T10:32:43;6.93;;;5.40;;
52306;SDS011;38249;48.920;12.882;2022-07-22T10:35:22;7.25;;;6.65;;
52306;SDS011;38249;48.920;12.882;2022-07-22T10:38:06;6.38;;;5.82;;
52306;SDS011;38249;48.920;12.882;2022-07-22T10:40:51;6.20;;;5.68;;
52306;SDS011;38249;48.920;12.882;2022-07-22T10:43:21;5.53;;;5.07;;
52306;SDS011;38249;48.920;12.882;2022-07-22T10:45:53;5.78;;;5.30;;
52306;SDS011;38249;48.920;12.882;2022-07-22T10:48:22;6.00;;;5.50;;
52306;SDS011;38249;48.920;12.882;2022-07-22T10:53:43;33.65;;;30.85;;
52306;SDS011;38249;48.920;12.882;2022-07-22T10:56:23;4.90;;;4.45;;
52306;SDS011;38249;48.920;12.882;2022-07-22T10:59:01;5.20;;;4.80;;
52306;SDS011;38249;48.920;12.882;2022-07-22T11:01:35;5.00;;;4.60;;
52306;SDS011;38249;48.920;12.882;2022-07-22T11:04:07;5.30;;;4.80;;
52306;SDS011;38249;48.920;12.882;2022-07-22T11:06:36;5.32;;;4.93;;
52306;SDS011;38249;48.920;12.882;2022-07-22T11:09:03;5.90;;;5.30;;
52306;SDS011;38249;48.920;12.882;2022-07-22T11:11:33;5.82;;;5.22;;
52306;SDS011;38249;48.920;12.882;2022-07-22T11:14:08;4.75;;;4.25;;
52306;SDS011;38249;48.920;12.882;2022-07-22T11:16:37;4.43;;;4.03;;
52306;SDS011;38249;48.920;12.882;2022-07-22T11:19:04;4.50;;;4.10;;
52306;SDS011;38249;48.920;12.882;2022-07-22T11:21:31;4.25;;;3.92;;
52306;SDS011;38249;48.920;12.882;2022-07-22T11:23:59;9.02;;;6.45;;
52306;SDS011;38249;48.920;12.882;2022-07-22T11:26:35;5.00;;;4.55;;
52306;SDS011;38249;48.920;12.882;2022-07-22T11:29:07;4.20;;;3.90;;
52306;SDS011;38249;48.920;12.882;2022-07-22T11:31:35;3.97;;;3.67;;
52306;SDS011;38249;48.920;12.882;2022-07-22T11:34:06;3.67;;;3.38;;
52306;SDS011;38249;48.920;12.882;2022-07-22T11:36:35;3.83;;;3.53;;
52306;SDS011;38249;48.920;12.882;2022-07-22T11:39:03;4.45;;;4.07;;
52306;SDS011;38249;48.920;12.882;2022-07-22T11:41:31;3.65;;;3.35;;
52306;SDS011;38249;48.920;12.882;2022-07-22T11:43:58;4.32;;;3.95;;
52306;SDS011;38249;48.920;12.882;2022-07-22T11:46:26;4.50;;;4.10;;
52306;SDS011;38249;48.920;12.882;2022-07-22T11:48:54;4.95;;;3.90;;
52306;SDS011;38249;48.920;12.882;2022-07-22T11:51:27;4.22;;;3.65;;
52306;SDS011;38249;48.920;12.882;2022-07-22T11:53:55;4.82;;;3.58;;
52306;SDS011;38249;48.920;12.882;2022-07-22T11:56:22;4.35;;;3.70;;
52306;SDS011;38249;48.920;12.882;2022-07-22T11:58:50;3.78;;;3.47;;
52306;SDS011;38249;48.920;12.882;2022-07-22T12:01:19;3.90;;;3.60;;
52306;SDS011;38249;48.920;12.882;2022-07-22T12:03:48;5.50;;;3.70;;
52306;SDS011;38249;48.920;12.882;2022-07-22T12:06:17;4.07;;;3.78;;
52306;SDS011;38249;48.920;12.882;2022-07-22T12:08:46;3.58;;;3.38;;
52306;SDS011;38249;48.920;12.882;2022-07-22T12:11:15;4.10;;;3.40;;
52306;SDS011;38249;48.920;12.882;2022-07-22T12:13:43;4.68;;;3.40;;
52306;SDS011;38249;48.920;12.882;2022-07-22T12:16:21;7.43;;;3.35;;
52306;SDS011;38249;48.920;12.882;2022-07-22T12:18:51;3.55;;;3.25;;
52306;SDS011;38249;48.920;12.882;2022-07-22T12:21:19;4.65;;;3.33;;
52306;SDS011;38249;48.920;12.882;2022-07-22T12:23:54;3.83;;;3.53;;
52306;SDS011;38249;48.920;12.882;2022-07-22T12:26:42;3.42;;;3.20;;
52306;SDS011;38249;48.920;12.882;2022-07-22T12:29:17;3.67;;;3.40;;
52306;SDS011;38249;48.920;12.882;2022-07-22T12:31:45;5.13;;;2.88;;
52306;SDS011;38249;48.920;12.882;2022-07-22T12:34:15;3.30;;;3.00;;
52306;SDS011;38249;48.920;12.882;2022-07-22T12:36:43;3.08;;;2.88;;
52306;SDS011;38249;48.920;12.882;2022-07-22T12:39:11;3.40;;;2.85;;
52306;SDS011;38249;48.920;12.882;2022-07-22T12:41:46;4.53;;;3.22;;
52306;SDS011;38249;48.920;12.882;2022-07-22T12:44:15;3.40;;;3.10;;
52306;SDS011;38249;48.920;12.882;2022-07-22T12:46:45;3.80;;;3.50;;
52306;SDS011;38249;48.920;12.882;2022-07-22T12:49:14;4.00;;;3.38;;
52306;SDS011;38249;48.920;12.882;2022-07-22T12:51:42;4.43;;;3.08;;
52306;SDS011;38249;48.920;12.882;2022-07-22T12:54:28;3.35;;;3.15;;
52306;SDS011;38249;48.920;12.882;2022-07-22T12:56:55;4.22;;;3.25;;
52306;SDS011;38249;48.920;12.882;2022-07-22T12:59:22;3.47;;;3.17;;
52306;SDS011;38249;48.920;12.882;2022-07-22T13:01:49;3.70;;;3.40;;
52306;SDS011;38249;48.920;12.882;2022-07-22T13:04:16;3.28;;;3.03;;
52306;SDS011;38249;48.920;12.882;2022-07-22T13:06:43;3.80;;;3.50;;
52306;SDS011;38249;48.920;12.882;2022-07-22T13:09:09;3.50;;;3.20;;
52306;SDS011;38249;48.920;12.882;2022-07-22T13:11:36;3.60;;;3.30;;
52306;SDS011;38249;48.920;12.882;2022-07-22T13:14:04;5.47;;;4.35;;
52306;SDS011;38249;48.920;12.882;2022-07-22T13:16:32;4.32;;;3.55;;
52306;SDS011;38249;48.920;12.882;2022-07-22T13:18:58;4.00;;;3.70;;
52306;SDS011;38249;48.920;12.882;2022-07-22T13:21:26;4.68;;;3.40;;
52306;SDS011;38249;48.920;12.882;2022-07-22T13:23:53;3.75;;;3.28;;
52306;SDS011;38249;48.920;12.882;2022-07-22T13:26:19;4.43;;;3.45;;
52306;SDS011;38249;48.920;12.882;2022-07-22T13:28:46;4.25;;;3.92;;
52306;SDS011;38249;48.920;12.882;2022-07-22T13:31:13;4.18;;;3.75;;
52306;SDS011;38249;48.920;12.882;2022-07-22T13:33:40;4.40;;;4.00;;
52306;SDS011;38249;48.920;12.882;2022-07-22T13:36:06;4.82;;;4.20;;
52306;SDS011;38249;48.920;12.882;2022-07-22T13:38:34;5.07;;;4.25;;
52306;SDS011;38249;48.920;12.882;2022-07-22T13:41:01;4.70;;;4.05;;
52306;SDS011;38249;48.920;12.882;2022-07-22T13:43:27;4.78;;;4.15;;
52306;SDS011;38249;48.920;12.882;2022-07-22T13:45:55;5.70;;;4.50;;
52306;SDS011;38249;48.920;12.882;2022-07-22T13:48:22;4.85;;;4.45;;
52306;SDS011;38249;48.920;12.882;2022-07-22T13:50:48;5.55;;;4.70;;
52306;SDS011;38249;48.920;12.882;2022-07-22T13:53:14;5.53;;;4.50;;
52306;SDS011;38249;48.920;12.882;2022-07-22T13:55:42;5.53;;;4.57;;
52306;SDS011;38249;48.920;12.882;2022-07-22T13:58:09;4.70;;;4.30;;
52306;SDS011;38249;48.920;12.882;2022-07-22T14:00:36;5.75;;;3.90;;
52306;SDS011;38249;48.920;12.882;2022-07-22T14:03:02;4.30;;;3.90;;
52306;SDS011;38249;48.920;12.882;2022-07-22T14:05:31;4.20;;;3.90;;
52306;SDS011;38249;48.920;12.882;2022-07-22T14:07:57;3.90;;;3.60;;
52306;SDS011;38249;48.920;12.882;2022-07-22T14:10:24;4.20;;;3.90;;
52306;SDS011;38249;48.920;12.882;2022-07-22T14:12:51;5.15;;;4.32;;
52306;SDS011;38249;48.920;12.882;2022-07-22T14:15:18;5.88;;;4.47;;
52306;SDS011;38249;48.920;12.882;2022-07-22T14:17:45;4.60;;;4.20;;
52306;SDS011;38249;48.920;12.882;2022-07-22T14:20:12;4.80;;;4.20;;
52306;SDS011;38249;48.920;12.882;2022-07-22T14:22:38;4.97;;;4.55;;
52306;SDS011;38249;48.920;12.882;2022-07-22T14:25:05;4.50;;;4.10;;
52306;SDS011;38249;48.920;12.882;2022-07-22T14:27:31;5.80;;;5.32;;